sensor_id;sensor_type;location;lat;lon;timestamp;pressure;altitude;pressure_sealevel;temperature;humidity
73748;BME280;62056;52.130;5.428;2023-01-31T00:01:29;102693.31;;;3.35;70.61
73748;BME280;62056;52.130;5.428;2023-01-31T00:03:59;102686.22;;;3.35;71.33
73748;BME280;62056;52.130;5.428;2023-01-31T00:06:34;102689.06;;;3.34;71.08
73748;BME280;62056;52.130;5.428;2023-01-31T00:09:02;102686.81;;;3.31;71.29
73748;BME280;62056;52.130;5.428;2023-01-31T00:11:30;102683.78;;;3.27;70.68
73748;BME280;62056;52.130;5.428;2023-01-31T00:13:58;102682.13;;;3.26;71.24
73748;BME280;62056;52.130;5.428;2023-01-31T00:16:25;102686.97;;;3.22;70.25
73748;BME280;62056;52.130;5.428;2023-01-31T00:18:52;102681.28;;;3.19;72.35
73748;BME280;62056;52.130;5.428;2023-01-31T00:21:22;102674.38;;;3.18;72.65
73748;BME280;62056;52.130;5.428;2023-01-31T00:23:50;102679.84;;;3.16;70.80
73748;BME280;62056;52.130;5.428;2023-01-31T00:26:20;102662.81;;;3.12;70.86
73748;BME280;62056;52.130;5.428;2023-01-31T00:28:49;102667.44;;;3.10;71.98
73748;BME280;62056;52.130;5.428;2023-01-31T00:31:16;102656.13;;;3.10;71.21
73748;BME280;62056;52.130;5.428;2023-01-31T00:33:45;102656.31;;;3.08;70.40
73748;BME280;62056;52.130;5.428;2023-01-31T00:36:16;102646.63;;;3.09;71.49
73748;BME280;62056;52.130;5.428;2023-01-31T00:38:43;102640.53;;;3.08;70.94
73748;BME280;62056;52.130;5.428;2023-01-31T00:41:11;102633.06;;;3.05;71.21
73748;BME280;62056;52.130;5.428;2023-01-31T00:43:38;102635.50;;;3.07;72.71
73748;BME280;62056;52.130;5.428;2023-01-31T00:46:05;102635.69;;;3.05;71.85
73748;BME280;62056;52.130;5.428;2023-01-31T00:48:32;102622.09;;;3.01;70.64
73748;BME280;62056;52.130;5.428;2023-01-31T00:51:00;102621.91;;;3.03;73.26
73748;BME280;62056;52.130;5.428;2023-01-31T00:53:26;102627.97;;;3.03;72.93
73748;BME280;62056;52.130;5.428;2023-01-31T00:55:59;102632.63;;;3.01;71.13
73748;BME280;62056;52.130;5.428;2023-01-31T00:58:27;102619.47;;;3.01;72.82
73748;BME280;62056;52.130;5.428;2023-01-31T01:00:53;102620.50;;;3.00;71.51
73748;BME280;62056;52.130;5.428;2023-01-31T01:03:20;102619.03;;;2.98;73.43
73748;BME280;62056;52.130;5.428;2023-01-31T01:05:46;102625.31;;;2.97;72.58
73748;BME280;62056;52.130;5.428;2023-01-31T01:08:13;102624.69;;;2.95;71.55
73748;BME280;62056;52.130;5.428;2023-01-31T01:10:39;102623.06;;;2.94;72.27
73748;BME280;62056;52.130;5.428;2023-01-31T01:13:06;102628.34;;;2.94;72.41
73748;BME280;62056;52.130;5.428;2023-01-31T01:15:36;102621.88;;;2.96;73.54
73748;BME280;62056;52.130;5.428;2023-01-31T01:18:03;102615.19;;;2.94;72.43
73748;BME280;62056;52.130;5.428;2023-01-31T01:20:30;102605.84;;;2.91;72.21
73748;BME280;62056;52.130;5.428;2023-01-31T01:22:57;102612.13;;;2.90;72.80
73748;BME280;62056;52.130;5.428;2023-01-31T01:25:24;102608.69;;;2.90;72.81
73748;BME280;62056;52.130;5.428;2023-01-31T01:27:51;102605.03;;;2.91;74.34
73748;BME280;62056;52.130;5.428;2023-01-31T01:30:18;102607.84;;;2.89;73.45
73748;BME280;62056;52.130;5.428;2023-01-31T01:32:46;102603.00;;;2.86;74.25
73748;BME280;62056;52.130;5.428;2023-01-31T01:35:14;102610.69;;;2.88;73.79
73748;BME280;62056;52.130;5.428;2023-01-31T01:37:40;102605.81;;;2.84;72.97
73748;BME280;62056;52.130;5.428;2023-01-31T01:40:08;102608.44;;;2.84;75.27
73748;BME280;62056;52.130;5.428;2023-01-31T01:42:34;102604.19;;;2.83;74.16
73748;BME280;62056;52.130;5.428;2023-01-31T01:45:08;102620.59;;;2.86;75.70
73748;BME280;62056;52.130;5.428;2023-01-31T01:47:45;102620.59;;;2.86;75.26
73748;BME280;62056;52.130;5.428;2023-01-31T01:50:35;102616.13;;;2.86;76.07
73748;BME280;62056;52.130;5.428;2023-01-31T01:53:18;102612.88;;;2.84;74.22
73748;BME280;62056;52.130;5.428;2023-01-31T01:55:49;102620.38;;;2.87;74.02
73748;BME280;62056;52.130;5.428;2023-01-31T02:00:54;102615.94;;;2.88;74.19
73748;BME280;62056;52.130;5.428;2023-01-31T02:03:21;102620.00;;;2.90;77.38
73748;BME280;62056;52.130;5.428;2023-01-31T02:05:51;102611.31;;;2.90;75.50
73748;BME280;62056;52.130;5.428;2023-01-31T02:08:22;102616.38;;;2.91;75.34
73748;BME280;62056;52.130;5.428;2023-01-31T02:10:54;102623.88;;;2.94;76.52
73748;BME280;62056;52.130;5.428;2023-01-31T02:13:23;102616.00;;;2.94;74.90
73748;BME280;62056;52.130;5.428;2023-01-31T02:15:50;102619.03;;;2.98;75.64
73748;BME280;62056;52.130;5.428;2023-01-31T02:18:18;102619.03;;;2.98;74.78
73748;BME280;62056;52.130;5.428;2023-01-31T02:27:17;102622.34;;;3.07;75.32
73748;BME280;62056;52.130;5.428;2023-01-31T02:30:12;102621.16;;;3.09;75.96
73748;BME280;62056;52.130;5.428;2023-01-31T02:32:52;102608.63;;;3.11;75.16
73748;BME280;62056;52.130;5.428;2023-01-31T02:35:41;102604.00;;;3.13;75.66
73748;BME280;62056;52.130;5.428;2023-01-31T02:44:19;102586.84;;;3.24;76.24
73748;BME280;62056;52.130;5.428;2023-01-31T02:52:58;102576.38;;;3.31;77.16
73748;BME280;62056;52.130;5.428;2023-01-31T02:55:35;102586.50;;;3.34;77.95
73748;BME280;62056;52.130;5.428;2023-01-31T02:58:24;102570.31;;;3.37;77.32
73748;BME280;62056;52.130;5.428;2023-01-31T03:00:55;102582.66;;;3.36;77.45
73748;BME280;62056;52.130;5.428;2023-01-31T03:03:26;102577.00;;;3.39;77.95
73748;BME280;62056;52.130;5.428;2023-01-31T03:08:57;102575.63;;;3.43;78.27
73748;BME280;62056;52.130;5.428;2023-01-31T03:14:23;102574.81;;;3.50;79.00
73748;BME280;62056;52.130;5.428;2023-01-31T03:17:23;102567.38;;;3.53;80.89
73748;BME280;62056;52.130;5.428;2023-01-31T03:20:05;102562.09;;;3.53;78.57
73748;BME280;62056;52.130;5.428;2023-01-31T03:22:39;102561.91;;;3.55;78.65
73748;BME280;62056;52.130;5.428;2023-01-31T03:25:09;102552.00;;;3.57;79.33
73748;BME280;62056;52.130;5.428;2023-01-31T03:27:38;102562.34;;;3.58;79.21
73748;BME280;62056;52.130;5.428;2023-01-31T03:30:14;102557.69;;;3.60;79.44
73748;BME280;62056;52.130;5.428;2023-01-31T03:32:48;102541.69;;;3.62;79.92
73748;BME280;62056;52.130;5.428;2023-01-31T03:35:16;102541.31;;;3.65;81.37
73748;BME280;62056;52.130;5.428;2023-01-31T03:40:23;102532.81;;;3.70;80.39
73748;BME280;62056;52.130;5.428;2023-01-31T03:43:04;102529.16;;;3.71;80.54
73748;BME280;62056;52.130;5.428;2023-01-31T03:45:44;102528.97;;;3.72;78.95
73748;BME280;62056;52.130;5.428;2023-01-31T03:48:14;102529.19;;;3.77;79.79
73748;BME280;62056;52.130;5.428;2023-01-31T03:50:50;102524.31;;;3.81;80.93
73748;BME280;62056;52.130;5.428;2023-01-31T03:53:31;102523.34;;;3.82;79.65
73748;BME280;62056;52.130;5.428;2023-01-31T03:56:07;102530.63;;;3.87;80.42
73748;BME280;62056;52.130;5.428;2023-01-31T03:58:40;102527.81;;;3.88;80.44
73748;BME280;62056;52.130;5.428;2023-01-31T04:01:11;102536.50;;;3.89;80.15
73748;BME280;62056;52.130;5.428;2023-01-31T04:03:44;102536.91;;;3.92;81.89
73748;BME280;62056;52.130;5.428;2023-01-31T04:06:12;102530.63;;;3.93;80.94
73748;BME280;62056;52.130;5.428;2023-01-31T04:08:39;102523.34;;;3.95;81.46
73748;BME280;62056;52.130;5.428;2023-01-31T04:11:09;102518.31;;;3.94;81.23
73748;BME280;62056;52.130;5.428;2023-01-31T04:13:38;102519.91;;;3.95;80.63
73748;BME280;62056;52.130;5.428;2023-01-31T04:16:05;102515.25;;;3.97;80.88
73748;BME280;62056;52.130;5.428;2023-01-31T04:18:32;102510.00;;;3.97;81.62
73748;BME280;62056;52.130;5.428;2023-01-31T04:21:03;102507.34;;;3.97;80.57
73748;BME280;62056;52.130;5.428;2023-01-31T04:23:29;102502.28;;;3.95;80.46
73748;BME280;62056;52.130;5.428;2023-01-31T04:25:56;102506.75;;;3.95;81.21
73748;BME280;62056;52.130;5.428;2023-01-31T04:28:23;102498.84;;;3.95;80.20
73748;BME280;62056;52.130;5.428;2023-01-31T04:30:54;102493.59;;;3.95;80.80
73748;BME280;62056;52.130;5.428;2023-01-31T04:33:21;102495.41;;;3.94;81.08
73748;BME280;62056;52.130;5.428;2023-01-31T04:35:49;102507.78;;;3.94;80.97
73748;BME280;62056;52.130;5.428;2023-01-31T04:38:16;102491.38;;;3.98;82.51
73748;BME280;62056;52.130;5.428;2023-01-31T04:40:43;102489.53;;;3.99;82.08
73748;BME280;62056;52.130;5.428;2023-01-31T04:43:09;102511.22;;;4.01;81.86
73748;BME280;62056;52.130;5.428;2023-01-31T04:45:37;102503.31;;;4.01;81.92
73748;BME280;62056;52.130;5.428;2023-01-31T04:48:04;102490.16;;;4.01;81.65
73748;BME280;62056;52.130;5.428;2023-01-31T04:50:30;102477.41;;;4.04;83.18
73748;BME280;62056;52.130;5.428;2023-01-31T04:52:57;102467.06;;;4.03;82.18
73748;BME280;62056;52.130;5.428;2023-01-31T04:55:23;102478.00;;;4.07;82.26
73748;BME280;62056;52.130;5.428;2023-01-31T04:57:51;102480.22;;;4.10;84.61
73748;BME280;62056;52.130;5.428;2023-01-31T05:00:18;102464.25;;;4.04;81.85
73748;BME280;62056;52.130;5.428;2023-01-31T05:02:45;102471.53;;;4.09;82.09
73748;BME280;62056;52.130;5.428;2023-01-31T05:05:11;102473.34;;;4.09;81.78
73748;BME280;62056;52.130;5.428;2023-01-31T05:07:38;102462.81;;;4.09;81.68
73748;BME280;62056;52.130;5.428;2023-01-31T05:10:05;102455.53;;;4.11;82.53
73748;BME280;62056;52.130;5.428;2023-01-31T05:12:33;102464.22;;;4.11;82.93
73748;BME280;62056;52.130;5.428;2023-01-31T05:14:59;102467.66;;;4.12;82.61
73748;BME280;62056;52.130;5.428;2023-01-31T05:17:27;102464.84;;;4.13;82.28
73748;BME280;62056;52.130;5.428;2023-01-31T05:19:55;102464.41;;;4.16;83.08
73748;BME280;62056;52.130;5.428;2023-01-31T05:22:22;102457.34;;;4.17;83.55
73748;BME280;62056;52.130;5.428;2023-01-31T05:24:49;102458.97;;;4.18;83.22
73748;BME280;62056;52.130;5.428;2023-01-31T05:27:17;102461.41;;;4.19;83.64
73748;BME280;62056;52.130;5.428;2023-01-31T05:29:44;102467.28;;;4.21;84.54
73748;BME280;62056;52.130;5.428;2023-01-31T05:32:12;102462.19;;;4.20;83.68
73748;BME280;62056;52.130;5.428;2023-01-31T05:34:39;102443.56;;;4.21;84.38
73748;BME280;62056;52.130;5.428;2023-01-31T05:37:06;102445.41;;;4.21;83.18
73748;BME280;62056;52.130;5.428;2023-01-31T05:39:33;102452.88;;;4.24;83.46
73748;BME280;62056;52.130;5.428;2023-01-31T05:42:01;102445.78;;;4.24;84.05
73748;BME280;62056;52.130;5.428;2023-01-31T05:44:28;102441.13;;;4.26;83.81
73748;BME280;62056;52.130;5.428;2023-01-31T05:46:54;102440.13;;;4.28;83.10
73748;BME280;62056;52.130;5.428;2023-01-31T05:49:21;102448.81;;;4.28;83.64
73748;BME280;62056;52.130;5.428;2023-01-31T05:51:48;102451.03;;;4.31;83.93
73748;BME280;62056;52.130;5.428;2023-01-31T05:54:14;102445.78;;;4.31;83.83
73748;BME280;62056;52.130;5.428;2023-01-31T05:56:41;102442.75;;;4.34;84.66
73748;BME280;62056;52.130;5.428;2023-01-31T05:59:07;102430.56;;;4.33;84.26
73748;BME280;62056;52.130;5.428;2023-01-31T06:01:34;102423.50;;;4.34;84.27
73748;BME280;62056;52.130;5.428;2023-01-31T06:04:01;102428.34;;;4.37;84.43
73748;BME280;62056;52.130;5.428;2023-01-31T06:06:27;102414.19;;;4.38;85.08
73748;BME280;62056;52.130;5.428;2023-01-31T06:08:54;102412.34;;;4.38;84.86
73748;BME280;62056;52.130;5.428;2023-01-31T06:11:20;102425.50;;;4.38;84.10
73748;BME280;62056;52.130;5.428;2023-01-31T06:13:47;102416.56;;;4.39;84.86
73748;BME280;62056;52.130;5.428;2023-01-31T06:16:14;102424.09;;;4.42;83.99
73748;BME280;62056;52.130;5.428;2023-01-31T06:18:41;102405.03;;;4.40;83.55
73748;BME280;62056;52.130;5.428;2023-01-31T06:21:08;102396.72;;;4.43;84.03
73748;BME280;62056;52.130;5.428;2023-01-31T06:23:34;102393.06;;;4.44;85.10
73748;BME280;62056;52.130;5.428;2023-01-31T06:26:01;102403.63;;;4.44;84.08
73748;BME280;62056;52.130;5.428;2023-01-31T06:28:28;102407.25;;;4.43;84.29
73748;BME280;62056;52.130;5.428;2023-01-31T06:30:54;102401.78;;;4.45;84.88
73748;BME280;62056;52.130;5.428;2023-01-31T06:33:22;102403.41;;;4.46;85.66
73748;BME280;62056;52.130;5.428;2023-01-31T06:36:04;102393.69;;;4.46;84.92
73748;BME280;62056;52.130;5.428;2023-01-31T06:38:30;102396.13;;;4.48;85.40
73748;BME280;62056;52.130;5.428;2023-01-31T06:40:57;102393.25;;;4.50;85.39
73748;BME280;62056;52.130;5.428;2023-01-31T06:43:24;102389.81;;;4.49;84.92
73748;BME280;62056;52.130;5.428;2023-01-31T06:45:50;102387.97;;;4.50;85.12
73748;BME280;62056;52.130;5.428;2023-01-31T06:48:17;102389.41;;;4.52;84.95
73748;BME280;62056;52.130;5.428;2023-01-31T06:50:45;102389.19;;;4.54;85.31
73748;BME280;62056;52.130;5.428;2023-01-31T06:53:12;102391.81;;;4.54;85.25
73748;BME280;62056;52.130;5.428;2023-01-31T06:55:38;102392.44;;;4.56;85.14
73748;BME280;62056;52.130;5.428;2023-01-31T06:58:05;102387.16;;;4.56;84.87
73748;BME280;62056;52.130;5.428;2023-01-31T07:00:31;102389.00;;;4.55;85.08
73748;BME280;62056;52.130;5.428;2023-01-31T07:02:58;102376.41;;;4.57;85.04
73748;BME280;62056;52.130;5.428;2023-01-31T07:05:25;102382.50;;;4.58;85.12
73748;BME280;62056;52.130;5.428;2023-01-31T07:07:51;102380.69;;;4.58;85.48
73748;BME280;62056;52.130;5.428;2023-01-31T07:10:18;102363.41;;;4.62;86.00
73748;BME280;62056;52.130;5.428;2023-01-31T07:12:45;102357.34;;;4.62;85.35
73748;BME280;62056;52.130;5.428;2023-01-31T07:15:11;102359.97;;;4.62;85.14
73748;BME280;62056;52.130;5.428;2023-01-31T07:17:38;102357.94;;;4.64;85.43
73748;BME280;62056;52.130;5.428;2023-01-31T07:20:06;102346.16;;;4.66;86.02
73748;BME280;62056;52.130;5.428;2023-01-31T07:22:32;102349.84;;;4.65;85.41
73748;BME280;62056;52.130;5.428;2023-01-31T07:24:59;102350.63;;;4.66;85.20
73748;BME280;62056;52.130;5.428;2023-01-31T07:27:26;102357.53;;;4.67;85.14
73748;BME280;62056;52.130;5.428;2023-01-31T07:29:53;102353.88;;;4.68;85.44
73748;BME280;62056;52.130;5.428;2023-01-31T07:32:19;102350.22;;;4.69;85.32
73748;BME280;62056;52.130;5.428;2023-01-31T07:34:46;102350.59;;;4.73;85.80
73748;BME280;62056;52.130;5.428;2023-01-31T07:37:12;102336.81;;;4.77;86.29
73748;BME280;62056;52.130;5.428;2023-01-31T07:39:39;102345.50;;;4.84;86.25
73748;BME280;62056;52.130;5.428;2023-01-31T07:42:05;102348.09;;;4.91;86.92
73748;BME280;62056;52.130;5.428;2023-01-31T07:44:32;102351.28;;;5.00;87.08
73748;BME280;62056;52.130;5.428;2023-01-31T07:46:58;102355.28;;;5.09;87.22
73748;BME280;62056;52.130;5.428;2023-01-31T07:49:25;102351.59;;;5.17;87.72
73748;BME280;62056;52.130;5.428;2023-01-31T07:51:52;102351.91;;;5.27;87.99
73748;BME280;62056;52.130;5.428;2023-01-31T07:54:18;102346.81;;;5.32;88.07
73748;BME280;62056;52.130;5.428;2023-01-31T07:56:45;102349.00;;;5.42;88.75
73748;BME280;62056;52.130;5.428;2023-01-31T07:59:12;102341.84;;;5.49;88.67
73748;BME280;62056;52.130;5.428;2023-01-31T08:01:39;102342.97;;;5.60;89.04
73748;BME280;62056;52.130;5.428;2023-01-31T08:04:25;102323.25;;;5.62;88.94
73748;BME280;62056;52.130;5.428;2023-01-31T08:06:53;102325.59;;;5.71;89.21
73748;BME280;62056;52.130;5.428;2023-01-31T08:09:21;102322.09;;;5.77;89.59
73748;BME280;62056;52.130;5.428;2023-01-31T08:11:48;102317.19;;;5.80;89.49
73748;BME280;62056;52.130;5.428;2023-01-31T08:14:15;102328.53;;;5.87;89.48
73748;BME280;62056;52.130;5.428;2023-01-31T08:16:41;102314.66;;;5.92;89.81
73748;BME280;62056;52.130;5.428;2023-01-31T08:19:08;102316.88;;;5.95;89.53
73748;BME280;62056;52.130;5.428;2023-01-31T08:21:35;102314.41;;;6.00;89.92
73748;BME280;62056;52.130;5.428;2023-01-31T08:24:01;102293.88;;;6.02;89.62
73748;BME280;62056;52.130;5.428;2023-01-31T08:26:28;102297.91;;;6.05;89.37
73748;BME280;62056;52.130;5.428;2023-01-31T08:28:56;102302.72;;;6.08;88.52
73748;BME280;62056;52.130;5.428;2023-01-31T08:31:24;102293.34;;;6.12;89.07
73748;BME280;62056;52.130;5.428;2023-01-31T08:33:51;102302.22;;;6.18;88.18
73748;BME280;62056;52.130;5.428;2023-01-31T08:38:51;102282.97;;;6.29;90.09
73748;BME280;62056;52.130;5.428;2023-01-31T08:41:21;102292.53;;;6.30;89.09
73748;BME280;62056;52.130;5.428;2023-01-31T08:43:48;102293.50;;;6.36;89.30
73748;BME280;62056;52.130;5.428;2023-01-31T08:46:24;102289.13;;;6.41;89.58
73748;BME280;62056;52.130;5.428;2023-01-31T08:48:51;102293.63;;;6.41;89.21
73748;BME280;62056;52.130;5.428;2023-01-31T08:51:18;102301.69;;;6.46;88.96
73748;BME280;62056;52.130;5.428;2023-01-31T08:53:45;102288.19;;;6.54;88.83
73748;BME280;62056;52.130;5.428;2023-01-31T08:56:13;102302.41;;;6.53;88.89
73748;BME280;62056;52.130;5.428;2023-01-31T08:58:42;102294.47;;;6.53;87.85
73748;BME280;62056;52.130;5.428;2023-01-31T09:01:11;102284.28;;;6.57;88.47
73748;BME280;62056;52.130;5.428;2023-01-31T09:03:39;102293.38;;;6.61;88.41
73748;BME280;62056;52.130;5.428;2023-01-31T09:06:13;102297.41;;;6.63;88.37
73748;BME280;62056;52.130;5.428;2023-01-31T09:08:41;102295.72;;;6.69;88.37
73748;BME280;62056;52.130;5.428;2023-01-31T09:11:26;102295.25;;;6.72;87.93
73748;BME280;62056;52.130;5.428;2023-01-31T09:14:03;102289.16;;;6.72;88.13
73748;BME280;62056;52.130;5.428;2023-01-31T09:16:29;102295.03;;;6.74;87.68
73748;BME280;62056;52.130;5.428;2023-01-31T09:18:56;102284.81;;;6.77;87.94
73748;BME280;62056;52.130;5.428;2023-01-31T09:21:24;102287.00;;;6.80;87.50
73748;BME280;62056;52.130;5.428;2023-01-31T09:23:58;102287.72;;;6.87;87.50
73748;BME280;62056;52.130;5.428;2023-01-31T09:26:25;102284.50;;;6.85;87.02
73748;BME280;62056;52.130;5.428;2023-01-31T09:28:52;102277.16;;;6.87;87.07
73748;BME280;62056;52.130;5.428;2023-01-31T09:31:19;102283.56;;;6.92;86.79
73748;BME280;62056;52.130;5.428;2023-01-31T09:33:46;102265.88;;;6.92;86.43
73748;BME280;62056;52.130;5.428;2023-01-31T09:36:16;102277.16;;;6.99;87.13
73748;BME280;62056;52.130;5.428;2023-01-31T09:38:44;102260.28;;;7.00;86.69
73748;BME280;62056;52.130;5.428;2023-01-31T09:41:32;102266.13;;;7.02;86.51
73748;BME280;62056;52.130;5.428;2023-01-31T09:44:22;102268.78;;;7.02;86.27
73748;BME280;62056;52.130;5.428;2023-01-31T09:47:19;102279.69;;;7.06;86.10
73748;BME280;62056;52.130;5.428;2023-01-31T09:49:50;102271.19;;;7.04;86.16
73748;BME280;62056;52.130;5.428;2023-01-31T09:52:19;102264.88;;;7.05;86.44
73748;BME280;62056;52.130;5.428;2023-01-31T09:54:47;102237.38;;;7.06;85.48
73748;BME280;62056;52.130;5.428;2023-01-31T09:57:43;102256.25;;;7.09;85.64
73748;BME280;62056;52.130;5.428;2023-01-31T10:03:17;102271.09;;;7.11;85.39
73748;BME280;62056;52.130;5.428;2023-01-31T10:05:53;102269.03;;;7.13;85.56
73748;BME280;62056;52.130;5.428;2023-01-31T10:11:12;102268.78;;;7.14;85.30
73748;BME280;62056;52.130;5.428;2023-01-31T10:13:53;102276.06;;;7.19;84.83
73748;BME280;62056;52.130;5.428;2023-01-31T10:16:37;102259.13;;;7.20;85.36
73748;BME280;62056;52.130;5.428;2023-01-31T10:19:11;102241.31;;;7.15;85.02
73748;BME280;62056;52.130;5.428;2023-01-31T10:21:48;102250.41;;;7.19;85.22
73748;BME280;62056;52.130;5.428;2023-01-31T10:24:39;102239.69;;;7.26;85.06
73748;BME280;62056;52.130;5.428;2023-01-31T10:27:18;102249.81;;;7.29;85.02
73748;BME280;62056;52.130;5.428;2023-01-31T10:29:51;102238.31;;;7.35;85.23
73748;BME280;62056;52.130;5.428;2023-01-31T10:32:34;102255.13;;;7.41;85.04
73748;BME280;62056;52.130;5.428;2023-01-31T10:37:54;102244.31;;;7.42;84.29
73748;BME280;62056;52.130;5.428;2023-01-31T10:40:32;102226.16;;;7.46;84.36
73748;BME280;62056;52.130;5.428;2023-01-31T10:43:13;102225.66;;;7.49;82.62
73748;BME280;62056;52.130;5.428;2023-01-31T10:45:42;102221.88;;;7.57;84.56
73748;BME280;62056;52.130;5.428;2023-01-31T10:48:17;102223.47;;;7.58;84.49
73748;BME280;62056;52.130;5.428;2023-01-31T10:50:48;102220.59;;;7.59;84.83
73748;BME280;62056;52.130;5.428;2023-01-31T10:56:22;102228.19;;;7.67;84.09
73748;BME280;62056;52.130;5.428;2023-01-31T10:58:52;102215.53;;;7.69;83.92
73748;BME280;62056;52.130;5.428;2023-01-31T11:01:19;102213.44;;;7.72;84.56
73748;BME280;62056;52.130;5.428;2023-01-31T11:03:51;102215.53;;;7.69;83.86
73748;BME280;62056;52.130;5.428;2023-01-31T11:06:18;102220.69;;;7.76;84.03
73748;BME280;62056;52.130;5.428;2023-01-31T11:08:49;102227.97;;;7.69;84.67
73748;BME280;62056;52.130;5.428;2023-01-31T11:11:19;102231.84;;;7.66;84.46
73748;BME280;62056;52.130;5.428;2023-01-31T11:14:09;102233.47;;;7.67;84.23
73748;BME280;62056;52.130;5.428;2023-01-31T11:16:43;102233.25;;;7.69;84.71
73748;BME280;62056;52.130;5.428;2023-01-31T11:19:31;102234.75;;;7.65;84.54
73748;BME280;62056;52.130;5.428;2023-01-31T11:21:59;102232.09;;;7.65;85.37
73748;BME280;62056;52.130;5.428;2023-01-31T11:24:31;102231.06;;;7.66;84.66
73748;BME280;62056;52.130;5.428;2023-01-31T11:27:01;102226.56;;;7.66;85.13
73748;BME280;62056;52.130;5.428;2023-01-31T11:29:37;102217.47;;;7.62;85.14
73748;BME280;62056;52.130;5.428;2023-01-31T11:32:13;102222.44;;;7.59;85.64
73748;BME280;62056;52.130;5.428;2023-01-31T11:35:01;102211.59;;;7.60;85.49
73748;BME280;62056;52.130;5.428;2023-01-31T11:37:30;102205.28;;;7.61;85.35
73748;BME280;62056;52.130;5.428;2023-01-31T11:42:54;102205.84;;;7.63;85.99
73748;BME280;62056;52.130;5.428;2023-01-31T11:45:24;102203.66;;;7.60;86.10
73748;BME280;62056;52.130;5.428;2023-01-31T11:47:55;102207.44;;;7.64;85.89
73748;BME280;62056;52.130;5.428;2023-01-31T11:52:55;102202.41;;;7.63;86.28
73748;BME280;62056;52.130;5.428;2023-01-31T11:55:22;102197.69;;;7.65;86.26
73748;BME280;62056;52.130;5.428;2023-01-31T11:57:58;102193.28;;;7.70;86.29
73748;BME280;62056;52.130;5.428;2023-01-31T12:00:31;102191.13;;;7.67;86.51
73748;BME280;62056;52.130;5.428;2023-01-31T12:03:01;102185.13;;;7.72;86.45
73748;BME280;62056;52.130;5.428;2023-01-31T12:05:42;102197.31;;;7.73;86.45
73748;BME280;62056;52.130;5.428;2023-01-31T12:08:41;102185.47;;;7.76;86.70
73748;BME280;62056;52.130;5.428;2023-01-31T12:13:49;102180.16;;;7.76;86.78
73748;BME280;62056;52.130;5.428;2023-01-31T12:16:19;102173.81;;;7.77;86.67
73748;BME280;62056;52.130;5.428;2023-01-31T12:21:48;102174.97;;;7.81;86.73
73748;BME280;62056;52.130;5.428;2023-01-31T12:30:20;102162.03;;;7.96;86.89
73748;BME280;62056;52.130;5.428;2023-01-31T12:32:58;102159.00;;;8.04;86.54
73748;BME280;62056;52.130;5.428;2023-01-31T12:36:19;102168.09;;;8.08;86.83
73748;BME280;62056;52.130;5.428;2023-01-31T12:39:00;102161.50;;;8.11;86.79
73748;BME280;62056;52.130;5.428;2023-01-31T12:41:47;102162.97;;;8.19;86.35
73748;BME280;62056;52.130;5.428;2023-01-31T12:50:12;102140.97;;;8.35;85.71
73748;BME280;62056;52.130;5.428;2023-01-31T12:53:15;102133.97;;;8.41;85.62
73748;BME280;62056;52.130;5.428;2023-01-31T12:56:14;102123.28;;;8.53;85.97
73748;BME280;62056;52.130;5.428;2023-01-31T13:01:54;102128.59;;;8.69;85.29
73748;BME280;62056;52.130;5.428;2023-01-31T13:04:38;102125.44;;;8.73;85.16
73748;BME280;62056;52.130;5.428;2023-01-31T13:07:17;102126.66;;;8.82;85.13
73748;BME280;62056;52.130;5.428;2023-01-31T13:09:49;102114.00;;;8.89;84.87
73748;BME280;62056;52.130;5.428;2023-01-31T13:12:19;102109.59;;;8.95;83.72
73748;BME280;62056;52.130;5.428;2023-01-31T13:14:50;102108.53;;;8.96;84.40
73748;BME280;62056;52.130;5.428;2023-01-31T13:17:23;102121.94;;;9.06;83.89
73748;BME280;62056;52.130;5.428;2023-01-31T13:19:55;102117.69;;;9.05;83.57
73748;BME280;62056;52.130;5.428;2023-01-31T13:22:29;102110.53;;;9.05;84.04
73748;BME280;62056;52.130;5.428;2023-01-31T13:25:15;102124.69;;;9.11;82.97
73748;BME280;62056;52.130;5.428;2023-01-31T13:27:52;102122.81;;;9.11;83.38
73748;BME280;62056;52.130;5.428;2023-01-31T13:30:33;102120.50;;;9.15;83.49
73748;BME280;62056;52.130;5.428;2023-01-31T13:36:09;102111.78;;;9.20;82.42
73748;BME280;62056;52.130;5.428;2023-01-31T13:38:41;102109.88;;;9.15;82.80
73748;BME280;62056;52.130;5.428;2023-01-31T13:41:21;102117.09;;;9.20;82.59
73748;BME280;62056;52.130;5.428;2023-01-31T13:44:11;102133.59;;;9.22;82.72
73748;BME280;62056;52.130;5.428;2023-01-31T13:46:45;102136.00;;;9.23;82.66
73748;BME280;62056;52.130;5.428;2023-01-31T13:49:27;102139.28;;;9.30;82.78
73748;BME280;62056;52.130;5.428;2023-01-31T13:51:57;102137.41;;;9.31;81.95
73748;BME280;62056;52.130;5.428;2023-01-31T13:54:47;102142.94;;;9.46;81.53
73748;BME280;62056;52.130;5.428;2023-01-31T13:57:25;102148.16;;;9.41;80.89
73748;BME280;62056;52.130;5.428;2023-01-31T14:00:00;102149.03;;;9.47;79.72
73748;BME280;62056;52.130;5.428;2023-01-31T14:02:29;102147.69;;;9.44;80.46
73748;BME280;62056;52.130;5.428;2023-01-31T14:05:05;102159.41;;;9.48;80.59
73748;BME280;62056;52.130;5.428;2023-01-31T14:07:32;102162.06;;;9.48;80.46
73748;BME280;62056;52.130;5.428;2023-01-31T14:16:02;102180.53;;;9.60;78.33
73748;BME280;62056;52.130;5.428;2023-01-31T14:18:43;102176.75;;;9.56;79.01
73748;BME280;62056;52.130;5.428;2023-01-31T14:24:02;102184.81;;;9.61;78.28
73748;BME280;62056;52.130;5.428;2023-01-31T14:29:15;102179.50;;;9.61;77.00
73748;BME280;62056;52.130;5.428;2023-01-31T14:31:44;102184.56;;;9.63;76.67
73748;BME280;62056;52.130;5.428;2023-01-31T14:34:17;102187.03;;;9.69;76.24
73748;BME280;62056;52.130;5.428;2023-01-31T14:37:33;102190.13;;;9.61;76.29
73748;BME280;62056;52.130;5.428;2023-01-31T14:40:28;102204.31;;;9.72;76.03
73748;BME280;62056;52.130;5.428;2023-01-31T14:46:06;102194.44;;;9.67;75.07
73748;BME280;62056;52.130;5.428;2023-01-31T14:49:08;102190.44;;;9.65;74.54
73748;BME280;62056;52.130;5.428;2023-01-31T14:52:17;102201.13;;;9.70;75.15